createdAt,value
2023-03-11T00:00:29.847Z,84.47
2023-03-11T00:03:18.447Z,82.95
2023-03-11T00:05:46.478Z,82.18
2023-03-11T00:08:19.372Z,81.41
2023-03-11T00:10:48.062Z,82.43
2023-03-11T00:13:16.341Z,83.37
2023-03-11T00:15:47.830Z,83.25
2023-03-11T00:18:14.952Z,83.49
2023-03-11T00:20:44.592Z,83.18
2023-03-11T00:23:12.835Z,84.59
2023-03-11T00:25:40.130Z,84.52
2023-03-11T00:28:07.177Z,84.29
2023-03-11T00:30:34.556Z,85.08
2023-03-11T00:33:01.964Z,84.69
2023-03-11T00:35:33.335Z,85.16
2023-03-11T00:38:06.791Z,85.18
2023-03-11T00:40:35.652Z,85.04
2023-03-11T00:43:03.557Z,85.29
2023-03-11T00:45:31.026Z,85.42
2023-03-11T00:47:58.173Z,85.64
2023-03-11T00:50:28.687Z,85.74
2023-03-11T00:52:57.106Z,86.54
2023-03-11T00:55:28.592Z,86.09
2023-03-11T00:57:59.584Z,85.87
2023-03-11T01:00:31.234Z,85.73
2023-03-11T01:02:59.714Z,85.50
2023-03-11T01:05:29.968Z,84.92
2023-03-11T01:07:57.585Z,85.66
2023-03-11T01:10:25.275Z,85.55
2023-03-11T01:12:52.250Z,85.17
2023-03-11T01:15:29.114Z,85.62
2023-03-11T01:17:56.553Z,84.89
2023-03-11T01:20:23.613Z,84.76
2023-03-11T01:22:51.064Z,84.87
2023-03-11T01:25:20.361Z,84.64
2023-03-11T01:27:47.628Z,84.30
2023-03-11T01:30:18.437Z,84.67
2023-03-11T01:32:46.022Z,85.15
2023-03-11T01:35:15.731Z,85.28
2023-03-11T01:37:43.498Z,85.59
2023-03-11T01:40:32.661Z,85.37
2023-03-11T01:43:05.757Z,84.84
2023-03-11T01:45:51.634Z,85.16
2023-03-11T01:48:21.872Z,85.09
2023-03-11T01:50:50.451Z,85.49
2023-03-11T01:53:18.142Z,85.50
2023-03-11T01:55:47.409Z,86.01
2023-03-11T01:58:23.751Z,85.99
2023-03-11T02:00:51.035Z,86.61
2023-03-11T02:03:23.824Z,86.88
2023-03-11T02:05:53.585Z,86.24
2023-03-11T02:08:20.514Z,86.33
2023-03-11T02:10:51.906Z,86.74
2023-03-11T02:13:20.414Z,87.16
2023-03-11T02:15:47.556Z,86.85
2023-03-11T02:18:15.425Z,88.04
2023-03-11T02:21:03.069Z,87.64
2023-03-11T02:23:43.669Z,88.12
2023-03-11T02:26:23.497Z,88.65
2023-03-11T02:28:52.693Z,87.77
2023-03-11T02:31:20.461Z,86.04
2023-03-11T02:33:52.624Z,85.05
2023-03-11T02:36:38.417Z,85.69
2023-03-11T02:39:07.406Z,86.16
2023-03-11T02:41:38.678Z,86.31
2023-03-11T02:44:10.011Z,87.14
2023-03-11T02:46:40.826Z,86.93
2023-03-11T02:49:09.540Z,87.21
2023-03-11T02:51:36.585Z,86.08
2023-03-11T02:54:05.385Z,85.70
2023-03-11T02:56:32.932Z,86.92
2023-03-11T02:58:59.809Z,88.50
2023-03-11T03:01:28.573Z,88.91
2023-03-11T03:03:55.503Z,88.52
2023-03-11T03:06:22.445Z,89.13
2023-03-11T03:08:50.125Z,88.39
2023-03-11T03:11:17.003Z,88.65
2023-03-11T03:13:44.119Z,89.75
2023-03-11T03:16:12.173Z,90.23
2023-03-11T03:18:39.449Z,89.14
2023-03-11T03:21:08.335Z,88.96
2023-03-11T03:23:37.242Z,88.86
2023-03-11T03:26:05.433Z,88.87
2023-03-11T03:28:32.990Z,89.95
2023-03-11T03:31:05.141Z,89.77
2023-03-11T03:33:32.504Z,90.63
2023-03-11T03:36:00.007Z,91.70
2023-03-11T03:38:30.898Z,94.02
2023-03-11T03:40:57.877Z,94.52
2023-03-11T03:43:25.420Z,95.06
2023-03-11T03:46:03.867Z,96.82
2023-03-11T03:48:35.181Z,97.88
2023-03-11T03:51:06.560Z,97.47
2023-03-11T03:53:35.004Z,97.13
2023-03-11T03:56:07.176Z,98.38
2023-03-11T03:58:34.559Z,98.40
2023-03-11T04:01:03.874Z,98.62
2023-03-11T04:03:31.419Z,99.59
2023-03-11T04:06:07.717Z,99.81
2023-03-11T04:08:35.128Z,100.00
2023-03-11T04:11:03.088Z,100.00
2023-03-11T04:13:30.965Z,100.00
2023-03-11T04:15:58.722Z,100.00
2023-03-11T04:18:25.989Z,100.00
2023-03-11T04:20:53.442Z,100.00
2023-03-11T04:23:20.594Z,100.00
2023-03-11T04:25:47.648Z,100.00
2023-03-11T04:28:15.234Z,100.00
2023-03-11T04:30:44.109Z,100.00
2023-03-11T04:33:11.339Z,100.00
2023-03-11T04:35:39.051Z,100.00
2023-03-11T04:38:06.570Z,100.00
2023-03-11T04:40:33.746Z,100.00
2023-03-11T04:43:00.669Z,100.00
2023-03-11T04:45:27.923Z,100.00
2023-03-11T04:47:56.602Z,100.00
2023-03-11T04:50:23.658Z,100.00
2023-03-11T04:52:51.009Z,100.00
2023-03-11T04:55:18.678Z,100.00
2023-03-11T04:57:45.955Z,100.00
2023-03-11T05:00:15.139Z,100.00
2023-03-11T05:02:44.232Z,100.00
2023-03-11T05:05:11.790Z,100.00
2023-03-11T05:07:39.045Z,100.00
2023-03-11T05:10:06.912Z,100.00
2023-03-11T05:12:34.886Z,100.00
2023-03-11T05:15:03.081Z,100.00
2023-03-11T05:17:30.106Z,100.00
2023-03-11T05:19:57.522Z,100.00
2023-03-11T05:22:28.918Z,100.00
2023-03-11T05:24:56.166Z,100.00
2023-03-11T05:27:23.848Z,100.00
2023-03-11T05:29:53.560Z,100.00
2023-03-11T05:32:21.478Z,100.00
2023-03-11T05:34:49.199Z,100.00
2023-03-11T05:37:16.906Z,100.00
2023-03-11T05:39:44.115Z,100.00
2023-03-11T05:42:11.642Z,100.00
2023-03-11T05:44:39.144Z,100.00
2023-03-11T05:47:06.476Z,100.00
2023-03-11T05:49:34.295Z,100.00
2023-03-11T05:52:01.812Z,100.00
2023-03-11T05:54:29.475Z,100.00
2023-03-11T05:56:57.239Z,100.00
2023-03-11T05:59:24.698Z,100.00
2023-03-11T06:01:56.350Z,100.00
2023-03-11T06:04:24.559Z,100.00
2023-03-11T06:06:51.780Z,100.00
2023-03-11T06:09:19.869Z,100.00
2023-03-11T06:11:47.112Z,100.00
2023-03-11T06:14:15.302Z,100.00
2023-03-11T06:16:43.562Z,100.00
2023-03-11T06:19:11.023Z,99.84
2023-03-11T06:21:41.348Z,98.73
2023-03-11T06:24:08.783Z,98.54
2023-03-11T06:26:36.589Z,98.18
2023-03-11T06:29:04.036Z,97.82
2023-03-11T06:31:32.897Z,98.00
2023-03-11T06:34:05.917Z,98.66
2023-03-11T06:36:33.269Z,97.46
2023-03-11T06:39:00.315Z,97.46
2023-03-11T06:41:28.189Z,96.65
2023-03-11T06:43:59.328Z,96.63
2023-03-11T06:46:26.484Z,96.56
2023-03-11T06:48:54.157Z,96.06
2023-03-11T06:51:22.039Z,95.55
2023-03-11T06:53:51.941Z,95.49
2023-03-11T06:56:21.557Z,94.31
2023-03-11T06:58:53.331Z,93.28
2023-03-11T07:01:22.682Z,92.53
2023-03-11T07:03:51.079Z,91.54
2023-03-11T07:06:22.573Z,88.44
2023-03-11T07:08:52.578Z,86.39
2023-03-11T07:11:25.805Z,86.19
2023-03-11T07:13:55.647Z,86.00
2023-03-11T07:16:26.258Z,83.98
2023-03-11T07:18:58.571Z,84.13
2023-03-11T07:21:27.369Z,83.08
2023-03-11T07:23:56.875Z,82.29
2023-03-11T07:26:25.153Z,82.06
2023-03-11T07:28:55.075Z,81.37
2023-03-11T07:31:24.462Z,76.43
2023-03-11T07:33:51.668Z,74.34
2023-03-11T07:36:21.937Z,72.13
2023-03-11T07:38:53.972Z,71.24
2023-03-11T07:41:21.072Z,70.80
2023-03-11T07:43:48.017Z,69.32
2023-03-11T07:46:21.955Z,68.08
2023-03-11T07:48:49.999Z,68.43
2023-03-11T07:51:20.009Z,68.90
2023-03-11T07:53:48.027Z,66.53
2023-03-11T07:56:16.565Z,65.05
2023-03-11T07:58:45.838Z,65.17
2023-03-11T08:01:16.828Z,64.27
2023-03-11T08:03:45.886Z,61.59
2023-03-11T08:06:21.313Z,60.28
2023-03-11T08:08:49.054Z,61.36
2023-03-11T08:11:17.711Z,61.05
2023-03-11T08:13:46.564Z,61.10
2023-03-11T08:16:15.509Z,62.20
2023-03-11T08:18:43.415Z,61.04
2023-03-11T08:21:15.703Z,58.04
2023-03-11T08:23:43.498Z,59.45
2023-03-11T08:26:12.866Z,57.14
2023-03-11T08:28:40.056Z,56.80
2023-03-11T08:31:23.747Z,56.72
2023-03-11T08:33:52.797Z,54.73
2023-03-11T08:36:20.481Z,52.12
2023-03-11T08:38:47.535Z,51.38
2023-03-11T08:41:15.309Z,51.34
2023-03-11T08:43:43.862Z,51.04
2023-03-11T08:46:20.749Z,49.56
2023-03-11T08:48:47.822Z,49.10
2023-03-11T08:51:15.445Z,49.37
2023-03-11T08:53:42.245Z,50.42
2023-03-11T08:56:09.345Z,50.05
2023-03-11T08:58:36.589Z,48.64
2023-03-11T09:01:04.883Z,49.01
2023-03-11T09:03:34.896Z,48.50
2023-03-11T09:06:04.658Z,46.63
2023-03-11T09:08:31.765Z,45.22
2023-03-11T09:10:58.912Z,46.07
2023-03-11T09:13:26.180Z,45.68
2023-03-11T09:15:53.569Z,45.15
2023-03-11T09:18:20.697Z,46.99
2023-03-11T09:20:47.624Z,46.58
2023-03-11T09:23:17.173Z,47.49
2023-03-11T09:25:44.388Z,47.58
2023-03-11T09:28:11.233Z,47.15
2023-03-11T09:30:38.081Z,47.25
2023-03-11T09:33:05.125Z,46.71
2023-03-11T09:35:32.235Z,46.79
2023-03-11T09:37:59.319Z,47.15
2023-03-11T09:40:38.763Z,47.58
2023-03-11T09:43:23.530Z,45.08
2023-03-11T09:45:59.161Z,44.82
2023-03-11T09:48:41.795Z,46.76
2023-03-11T09:51:26.970Z,45.72
2023-03-11T09:54:04.563Z,44.27
2023-03-11T09:56:35.054Z,44.78
2023-03-11T09:59:07.381Z,46.91
2023-03-11T10:01:42.380Z,46.40
2023-03-11T10:04:29.120Z,46.37
2023-03-11T10:06:57.080Z,45.67
2023-03-11T10:09:47.383Z,46.68
2023-03-11T10:12:36.049Z,48.16
2023-03-11T10:15:22.945Z,47.18
2023-03-11T10:18:11.403Z,46.97
2023-03-11T10:20:47.048Z,46.10
2023-03-11T10:23:29.058Z,45.98
2023-03-11T10:26:04.822Z,46.74
2023-03-11T10:29:06.981Z,48.37
2023-03-11T10:31:43.342Z,47.80
2023-03-11T10:34:26.165Z,46.73
2023-03-11T10:37:06.432Z,47.08
2023-03-11T10:39:33.880Z,46.74
2023-03-11T10:42:04.134Z,48.86
2023-03-11T10:44:35.660Z,48.73
2023-03-11T10:47:03.059Z,49.28
2023-03-11T10:49:30.891Z,50.54
2023-03-11T10:51:58.379Z,51.40
2023-03-11T10:54:28.259Z,50.80
2023-03-11T10:57:01.053Z,51.40
2023-03-11T10:59:33.220Z,51.48
2023-03-11T11:02:21.467Z,53.47
2023-03-11T11:04:50.464Z,54.22
2023-03-11T11:07:31.451Z,54.34
2023-03-11T11:10:21.422Z,55.64
2023-03-11T11:13:13.259Z,54.16
2023-03-11T11:15:50.338Z,54.61
2023-03-11T11:18:28.197Z,55.55
2023-03-11T11:21:08.407Z,56.88
2023-03-11T11:23:41.734Z,56.86
2023-03-11T11:26:23.917Z,58.05
2023-03-11T11:29:23.103Z,59.45
2023-03-11T11:31:49.947Z,57.25
2023-03-11T11:34:34.311Z,57.11
2023-03-11T11:37:05.731Z,55.60
2023-03-11T11:39:50.847Z,55.78
2023-03-11T11:42:22.872Z,56.57
2023-03-11T11:44:57.003Z,57.42
2023-03-11T11:47:29.389Z,57.12
2023-03-11T11:50:00.847Z,57.27
2023-03-11T11:52:32.544Z,58.55
2023-03-11T11:55:28.029Z,58.76
2023-03-11T11:57:54.862Z,58.52
2023-03-11T12:00:29.350Z,59.64
2023-03-11T12:03:16.531Z,59.20
2023-03-11T12:06:02.262Z,57.92
2023-03-11T12:09:05.243Z,58.43
2023-03-11T12:11:43.538Z,57.11
2023-03-11T12:14:35.420Z,57.00
2023-03-11T12:17:04.648Z,57.51
2023-03-11T12:19:37.217Z,57.31
2023-03-11T12:22:39.790Z,58.41
2023-03-11T12:25:28.143Z,59.78
2023-03-11T12:28:16.482Z,59.87
2023-03-11T12:30:49.839Z,60.56
2023-03-11T12:33:40.511Z,60.33
2023-03-11T12:36:25.511Z,60.03
2023-03-11T12:38:53.731Z,58.12
2023-03-11T12:41:33.171Z,57.03
2023-03-11T12:44:23.370Z,55.54
2023-03-11T12:47:00.716Z,57.31
2023-03-11T12:49:33.645Z,57.99
2023-03-11T12:52:15.751Z,58.12
2023-03-11T12:55:17.712Z,57.30
2023-03-11T12:57:53.475Z,57.82
2023-03-11T13:00:49.403Z,60.10
2023-03-11T13:03:35.702Z,60.19
2023-03-11T13:06:21.392Z,57.33
2023-03-11T13:08:51.512Z,58.37
2023-03-11T13:11:33.666Z,60.85
2023-03-11T13:14:29.149Z,63.28
2023-03-11T13:17:17.409Z,63.63
2023-03-11T13:19:49.456Z,63.10
2023-03-11T13:22:58.129Z,62.93
2023-03-11T13:25:29.320Z,59.08
2023-03-11T13:28:27.201Z,57.35
2023-03-11T13:31:03.283Z,56.84
2023-03-11T13:33:40.333Z,56.39
2023-03-11T13:36:41.834Z,57.09
2023-03-11T13:39:54.521Z,56.14
2023-03-11T13:42:33.676Z,57.56
2023-03-11T13:45:00.818Z,57.21
2023-03-11T13:47:30.752Z,54.79
2023-03-11T13:50:06.878Z,56.34
2023-03-11T13:53:07.617Z,55.11
2023-03-11T13:55:41.333Z,56.26
2023-03-11T13:58:28.396Z,56.28
2023-03-11T14:01:00.332Z,56.11
2023-03-11T14:03:36.119Z,56.26
2023-03-11T14:06:13.378Z,56.99
2023-03-11T14:08:41.433Z,54.09
2023-03-11T14:11:09.770Z,54.26
2023-03-11T14:13:54.961Z,53.83
2023-03-11T14:16:35.449Z,53.57
2023-03-11T14:19:18.774Z,53.99
2023-03-11T14:21:49.448Z,53.00
2023-03-11T14:24:23.353Z,53.24
2023-03-11T14:26:55.600Z,54.00
2023-03-11T14:29:33.350Z,54.77
2023-03-11T14:32:00.511Z,54.94
2023-03-11T14:34:29.600Z,55.71
2023-03-11T14:36:59.355Z,55.36
2023-03-11T14:39:34.928Z,55.14
2023-03-11T14:42:26.861Z,55.74
2023-03-11T14:45:04.595Z,55.69
2023-03-11T14:47:39.982Z,56.37
2023-03-11T14:50:15.960Z,57.61
2023-03-11T14:52:55.295Z,57.34
2023-03-11T14:55:27.441Z,58.56
2023-03-11T14:58:17.942Z,59.35
2023-03-11T15:00:50.005Z,60.34
2023-03-11T15:03:25.581Z,60.13
2023-03-11T15:05:56.222Z,60.82
2023-03-11T15:08:28.065Z,61.57
2023-03-11T15:11:05.850Z,62.28
2023-03-11T15:13:34.335Z,61.04
2023-03-11T15:16:04.259Z,61.86
2023-03-11T15:18:41.543Z,62.14
2023-03-11T15:21:20.312Z,62.60
2023-03-11T15:23:53.178Z,62.90
2023-03-11T15:26:24.356Z,63.03
2023-03-11T15:29:16.361Z,63.64
2023-03-11T15:31:46.111Z,63.51
2023-03-11T15:34:15.964Z,64.05
2023-03-11T15:36:48.945Z,64.75
2023-03-11T15:39:30.755Z,64.81
2023-03-11T15:42:03.241Z,64.70
2023-03-11T15:44:40.855Z,64.12
2023-03-11T15:47:20.088Z,63.98
2023-03-11T15:49:48.238Z,63.05
2023-03-11T15:52:15.941Z,64.28
2023-03-11T15:54:47.426Z,65.05
2023-03-11T15:57:24.263Z,64.51
2023-03-11T15:59:54.554Z,65.13
2023-03-11T16:02:27.548Z,64.58
2023-03-11T16:04:55.343Z,62.58
2023-03-11T16:07:38.146Z,60.65
2023-03-11T16:10:06.705Z,60.83
2023-03-11T16:12:33.759Z,60.25
2023-03-11T16:15:00.729Z,59.36
2023-03-11T16:17:31.844Z,60.34
2023-03-11T16:20:07.193Z,59.90
2023-03-11T16:22:36.516Z,60.89
2023-03-11T16:25:04.163Z,61.03
2023-03-11T16:27:31.009Z,61.22
2023-03-11T16:29:57.854Z,61.50
2023-03-11T16:32:24.629Z,60.79
2023-03-11T16:34:51.749Z,60.37
2023-03-11T16:37:21.327Z,62.05
2023-03-11T16:39:48.405Z,62.76
2023-03-11T16:42:23.420Z,63.24
2023-03-11T16:44:50.403Z,64.05
2023-03-11T16:47:17.749Z,64.66
2023-03-11T16:49:44.721Z,65.05
2023-03-11T16:52:11.635Z,66.33
2023-03-11T16:54:38.617Z,66.77
2023-03-11T16:57:05.752Z,66.32
2023-03-11T16:59:32.784Z,66.47
2023-03-11T17:01:59.826Z,66.14
2023-03-11T17:04:26.785Z,66.34
2023-03-11T17:06:54.469Z,66.15
2023-03-11T17:09:24.162Z,66.47
2023-03-11T17:11:52.960Z,66.31
2023-03-11T17:14:21.051Z,66.97
2023-03-11T17:16:47.973Z,66.99
2023-03-11T17:19:14.830Z,67.60
2023-03-11T17:21:41.970Z,68.24
2023-03-11T17:24:10.483Z,67.85
2023-03-11T17:26:37.704Z,68.13
2023-03-11T17:29:04.448Z,68.91
2023-03-11T17:31:31.452Z,69.55
2023-03-11T17:34:02.579Z,70.18
2023-03-11T17:36:29.512Z,69.96
2023-03-11T17:38:56.334Z,69.75
2023-03-11T17:41:23.210Z,69.96
2023-03-11T17:43:51.536Z,69.76
2023-03-11T17:46:20.103Z,69.52
2023-03-11T17:48:48.791Z,70.64
2023-03-11T17:51:25.126Z,69.38
2023-03-11T17:53:55.124Z,69.49
2023-03-11T17:56:22.377Z,69.83
2023-03-11T17:58:50.243Z,69.91
2023-03-11T18:01:20.932Z,70.68
2023-03-11T18:03:48.872Z,69.83
2023-03-11T18:06:17.956Z,69.21
2023-03-11T18:08:45.326Z,68.78
2023-03-11T18:11:16.415Z,69.08
2023-03-11T18:13:45.850Z,68.81
2023-03-11T18:16:21.965Z,68.97
2023-03-11T18:18:49.019Z,69.23
2023-03-11T18:21:21.945Z,69.73
2023-03-11T18:23:50.974Z,69.29
2023-03-11T18:26:18.803Z,69.61
2023-03-11T18:28:46.084Z,69.46
2023-03-11T18:31:19.165Z,70.18
2023-03-11T18:33:49.090Z,70.81
2023-03-11T18:36:22.041Z,69.79
2023-03-11T18:38:51.658Z,69.65
2023-03-11T18:41:18.503Z,69.92
2023-03-11T18:43:45.571Z,70.03
2023-03-11T18:46:15.888Z,70.94
2023-03-11T18:48:42.781Z,71.56
2023-03-11T18:51:10.592Z,71.31
2023-03-11T18:53:37.955Z,71.44
2023-03-11T18:56:08.124Z,71.45
2023-03-11T18:58:34.914Z,71.18
2023-03-11T19:01:06.234Z,72.06
2023-03-11T19:03:33.940Z,71.55
2023-03-11T19:06:00.887Z,71.93
2023-03-11T19:08:28.657Z,72.37
2023-03-11T19:10:55.805Z,72.34
2023-03-11T19:13:22.784Z,72.04
2023-03-11T19:15:50.214Z,72.47
2023-03-11T19:18:17.387Z,71.49
2023-03-11T19:20:44.202Z,71.00
2023-03-11T19:23:11.197Z,71.88
2023-03-11T19:25:39.033Z,72.52
2023-03-11T19:28:05.727Z,72.35
2023-03-11T19:30:32.532Z,72.77
2023-03-11T19:32:59.911Z,73.04
2023-03-11T19:35:26.736Z,72.90
2023-03-11T19:37:57.240Z,73.34
2023-03-11T19:40:29.310Z,74.21
2023-03-11T19:43:00.269Z,77.16
2023-03-11T19:45:31.601Z,86.37
2023-03-11T19:47:59.584Z,89.09
2023-03-11T19:50:26.612Z,93.45
2023-03-11T19:52:53.625Z,95.58
2023-03-11T19:55:20.434Z,97.84
2023-03-11T19:57:47.568Z,98.82
2023-03-11T20:00:14.987Z,99.22
2023-03-11T20:02:41.894Z,99.74
2023-03-11T20:05:09.559Z,98.32
2023-03-11T20:07:36.373Z,97.64
2023-03-11T20:10:03.975Z,98.78
2023-03-11T20:12:30.882Z,99.98
2023-03-11T20:14:57.966Z,100.00
2023-03-11T20:17:24.775Z,100.00
2023-03-11T20:19:51.722Z,100.00
2023-03-11T20:22:19.862Z,100.00
2023-03-11T20:24:47.253Z,100.00
2023-03-11T20:27:14.749Z,100.00
2023-03-11T20:29:41.558Z,100.00
2023-03-11T20:32:08.479Z,100.00
2023-03-11T20:34:36.991Z,100.00
2023-03-11T20:37:04.135Z,100.00
2023-03-11T20:39:30.990Z,100.00
2023-03-11T20:41:58.312Z,100.00
2023-03-11T20:44:25.620Z,100.00
2023-03-11T20:46:54.314Z,100.00
2023-03-11T20:49:21.788Z,100.00
2023-03-11T20:51:48.682Z,100.00
2023-03-11T20:54:16.461Z,100.00
2023-03-11T20:56:43.625Z,100.00
2023-03-11T20:59:13.616Z,100.00
2023-03-11T21:01:40.670Z,100.00
2023-03-11T21:04:07.623Z,100.00
2023-03-11T21:06:40.579Z,95.89
2023-03-11T21:09:12.159Z,87.49
2023-03-11T21:11:39.138Z,86.01
2023-03-11T21:14:06.771Z,86.61
2023-03-11T21:16:34.712Z,86.16
2023-03-11T21:19:04.933Z,87.52
2023-03-11T21:21:32.222Z,87.59
2023-03-11T21:23:59.615Z,87.11
2023-03-11T21:26:26.469Z,83.53
2023-03-11T21:28:54.192Z,82.74
2023-03-11T21:31:24.714Z,79.61
2023-03-11T21:33:54.646Z,78.99
2023-03-11T21:36:22.257Z,76.42
2023-03-11T21:38:50.274Z,74.72
2023-03-11T21:41:20.197Z,74.00
2023-03-11T21:43:47.806Z,74.53
2023-03-11T21:46:18.533Z,75.95
2023-03-11T21:48:47.022Z,75.88
2023-03-11T21:51:15.654Z,75.27
2023-03-11T21:53:43.104Z,76.00
2023-03-11T21:56:10.295Z,75.13
2023-03-11T21:58:37.336Z,76.85
2023-03-11T22:01:04.992Z,75.56
2023-03-11T22:03:35.198Z,75.00
2023-03-11T22:06:08.231Z,75.29
2023-03-11T22:08:35.338Z,75.43
2023-03-11T22:11:05.993Z,74.46
2023-03-11T22:13:33.230Z,74.60
2023-03-11T22:16:06.792Z,72.94
2023-03-11T22:18:34.077Z,73.53
2023-03-11T22:21:01.694Z,75.79
2023-03-11T22:23:29.030Z,72.15
2023-03-11T22:25:55.950Z,72.42
2023-03-11T22:28:23.388Z,72.31
2023-03-11T22:30:50.363Z,72.92
2023-03-11T22:33:17.914Z,72.29
2023-03-11T22:35:56.405Z,72.51
2023-03-11T22:38:23.432Z,72.63
2023-03-11T22:40:51.256Z,71.36
2023-03-11T22:43:18.219Z,71.53
2023-03-11T22:45:45.815Z,72.71
2023-03-11T22:48:12.835Z,71.90
2023-03-11T22:50:44.515Z,73.34
2023-03-11T22:53:12.591Z,72.74
2023-03-11T22:55:41.236Z,72.21
2023-03-11T22:58:08.490Z,73.46
2023-03-11T23:00:36.280Z,73.38
2023-03-11T23:03:03.812Z,72.34
2023-03-11T23:05:31.079Z,72.35
2023-03-11T23:07:57.907Z,72.50
2023-03-11T23:10:24.662Z,73.14
2023-03-11T23:12:51.330Z,74.12
2023-03-11T23:15:18.856Z,71.79
2023-03-11T23:17:45.715Z,71.52
2023-03-11T23:20:15.105Z,71.78
2023-03-11T23:22:43.119Z,73.55
2023-03-11T23:25:15.453Z,71.64
2023-03-11T23:27:44.653Z,70.82
2023-03-11T23:30:13.980Z,71.13
2023-03-11T23:32:40.969Z,73.76
2023-03-11T23:35:09.078Z,73.87
2023-03-11T23:37:35.919Z,73.36
2023-03-11T23:40:04.393Z,73.54
2023-03-11T23:42:35.088Z,74.97
2023-03-11T23:45:02.061Z,75.17
2023-03-11T23:47:28.818Z,72.60
2023-03-11T23:49:55.675Z,73.09
2023-03-11T23:52:22.824Z,72.90
2023-03-11T23:54:49.912Z,73.64
2023-03-11T23:57:16.925Z,74.81
2023-03-11T23:59:44.175Z,74.05
